Sanford, Florida
Current Conditions -  °F | °C
As of 6:53 AM on Monday 22 Dec 2014 (Local Time) from KSFB Reporting Station
Scattered Clouds Scattered Clouds  
Wind Chill: 18°   Ceiling: Unl
Heat Index: 18°   Visibility: 8mi
Dew Point: 18°   Wind: 5mph
Humidity: 97%   Direction: 100°E
Pressure: 30"   Gusts: NA
Location:  28.81°N, 81.27°W
Report Text: KSFB 221153Z 10004KT 8SM SCT003 18/18 A3000 RMK AO2 SLP158 60031 70105 T01830178 10189 20183 58003
Loading
Personal Weather Stations






























Interactive Weather Map New forecast layout! Learn more

10-Day Weather Forecast

Advertisements
Track Severe Weather on mobile